createdAt,value
2018-02-27T00:00:11.375Z,-7.44
2018-02-27T00:01:10.434Z,-7.36
2018-02-27T00:02:10.416Z,-7.42
2018-02-27T00:03:10.151Z,-7.31
2018-02-27T00:04:10.379Z,-7.43
2018-02-27T00:05:10.926Z,-7.38
2018-02-27T00:06:09.841Z,-7.33
2018-02-27T00:07:10.341Z,-7.44
2018-02-27T00:08:10.304Z,-7.36
2018-02-27T00:09:09.789Z,-7.36
2018-02-27T00:10:10.350Z,-7.33
2018-02-27T00:11:10.277Z,-7.35
2018-02-27T00:12:10.258Z,-7.32
2018-02-27T00:13:09.714Z,-7.35
2018-02-27T00:14:10.235Z,-7.36
2018-02-27T00:15:10.385Z,-7.44
2018-02-27T00:16:10.167Z,-7.42
2018-02-27T00:17:09.907Z,-7.46
2018-02-27T00:18:09.874Z,-7.42
2018-02-27T00:19:09.859Z,-7.32
2018-02-27T00:20:10.631Z,-7.33
2018-02-27T00:21:10.085Z,-7.47
2018-02-27T00:22:09.802Z,-7.43
2018-02-27T00:23:10.215Z,-7.43
2018-02-27T00:24:09.768Z,-7.44
2018-02-27T00:25:10.664Z,-7.38
2018-02-27T00:26:09.479Z,-7.46
2018-02-27T00:27:09.980Z,-7.46
2018-02-27T00:28:09.703Z,-7.42
2018-02-27T00:29:09.458Z,-7.47
2018-02-27T00:30:10.168Z,-7.44
2018-02-27T00:31:09.896Z,-7.46
2018-02-27T00:32:09.876Z,-7.47
2018-02-27T00:33:09.611Z,-7.46
2018-02-27T00:34:09.840Z,-7.44
2018-02-27T00:35:09.987Z,-7.44
2018-02-27T00:36:09.862Z,-7.46
2018-02-27T00:37:09.789Z,-7.33
2018-02-27T00:38:09.514Z,-7.29
2018-02-27T00:39:09.501Z,-7.32
2018-02-27T00:40:10.187Z,-7.29
2018-02-27T00:41:09.466Z,-7.36
2018-02-27T00:42:09.448Z,-7.46
2018-02-27T00:43:09.682Z,-7.43
2018-02-27T00:44:10.066Z,-7.47
2018-02-27T00:45:10.499Z,-7.44
2018-02-27T00:46:09.630Z,-7.46
2018-02-27T00:47:09.609Z,-7.47
2018-02-27T00:48:09.600Z,-7.46
2018-02-27T00:49:09.575Z,-7.46
2018-02-27T00:50:09.630Z,-7.44
2018-02-27T00:51:09.302Z,-7.46
2018-02-27T00:52:09.518Z,-7.47
2018-02-27T00:53:09.256Z,-7.61
2018-02-27T00:54:09.229Z,-7.53
2018-02-27T00:55:09.882Z,-7.47
2018-02-27T00:56:09.447Z,-7.47
2018-02-27T00:57:09.432Z,-7.61
2018-02-27T00:58:09.166Z,-7.61
2018-02-27T00:59:09.141Z,-7.63
2018-02-27T01:00:09.832Z,-7.64
2018-02-27T01:01:08.852Z,-7.64
2018-02-27T01:02:09.087Z,-7.61
2018-02-27T01:03:09.332Z,-7.71
2018-02-27T01:04:09.301Z,-7.71
2018-02-27T01:05:09.704Z,-7.54
2018-02-27T01:06:09.269Z,-7.6
2018-02-27T01:07:09.256Z,-7.6
2018-02-27T01:08:09.235Z,-7.53
2018-02-27T01:09:09.222Z,-7.6
2018-02-27T01:10:09.307Z,-7.54
2018-02-27T01:11:09.196Z,-7.54
2018-02-27T01:12:08.906Z,-7.61
2018-02-27T01:13:09.154Z,-7.63
2018-02-27T01:14:08.872Z,-7.68
2018-02-27T01:15:09.545Z,-7.78
2018-02-27T01:16:09.092Z,-7.78
2018-02-27T01:17:08.822Z,-7.75
2018-02-27T01:18:08.795Z,-7.83
2018-02-27T01:19:08.785Z,-7.85
2018-02-27T01:20:09.091Z,-7.91
2018-02-27T01:21:08.740Z,-7.89
2018-02-27T01:22:11.847Z,-7.85
2018-02-27T01:23:08.957Z,-7.86
2018-02-27T01:24:08.684Z,-7.88
2018-02-27T01:25:09.317Z,-7.88
2018-02-27T01:26:08.650Z,-7.88
2018-02-27T01:27:08.647Z,-7.91
2018-02-27T01:28:08.865Z,-7.88
2018-02-27T01:29:08.593Z,-7.86
2018-02-27T01:30:08.953Z,-7.88
2018-02-27T01:31:08.816Z,-7.88
2018-02-27T01:32:08.802Z,-7.89
2018-02-27T01:33:08.781Z,-7.89
2018-02-27T01:34:08.776Z,-7.88
2018-02-27T01:35:08.782Z,-7.89
2018-02-27T01:36:08.721Z,-7.96
2018-02-27T01:37:08.702Z,-7.86
2018-02-27T01:38:08.687Z,-7.86
2018-02-27T01:39:08.410Z,-7.79
2018-02-27T01:40:09.318Z,-7.91
2018-02-27T01:41:08.634Z,-7.83
2018-02-27T01:42:08.368Z,-7.92
2018-02-27T01:43:08.337Z,-7.91
2018-02-27T01:44:08.586Z,-7.96
2018-02-27T01:45:08.523Z,-7.97
2018-02-27T01:46:08.290Z,-7.99
2018-02-27T01:47:08.531Z,-8.08
2018-02-27T01:48:08.509Z,-8.03
2018-02-27T01:49:07.974Z,-8.03
2018-02-27T01:50:08.471Z,-7.99
2018-02-27T01:51:08.206Z,-8.04
2018-02-27T01:52:08.440Z,-7.92
2018-02-27T01:53:08.417Z,-8.05
2018-02-27T01:54:08.400Z,-7.99
2018-02-27T01:55:08.322Z,-7.93
2018-02-27T01:56:08.358Z,-8.05
2018-02-27T01:57:08.336Z,-7.97
2018-02-27T01:58:08.317Z,-8.01
2018-02-27T01:59:07.792Z,-8.04
2018-02-27T02:00:08.480Z,-8.01
2018-02-27T02:01:08.274Z,-8.15
2018-02-27T02:02:07.996Z,-8.04
2018-02-27T02:03:07.988Z,-8.13
2018-02-27T02:04:08.216Z,-8.16
2018-02-27T02:05:07.683Z,-8.13
2018-02-27T02:06:08.173Z,-8.28
2018-02-27T02:07:07.904Z,-8.32
2018-02-27T02:08:08.138Z,-8.19
2018-02-27T02:09:07.862Z,-8.25
2018-02-27T02:10:08.322Z,-8.16
2018-02-27T02:11:08.082Z,-8.1
2018-02-27T02:12:08.065Z,-8.22
2018-02-27T02:13:08.046Z,-8.05
2018-02-27T02:14:08.031Z,-8.04
2018-02-27T02:15:08.106Z,-8.04
2018-02-27T02:16:07.735Z,-8.04
2018-02-27T02:17:07.976Z,-8.07
2018-02-27T02:18:07.705Z,-8.08
2018-02-27T02:19:07.935Z,-8.04
2018-02-27T02:20:07.664Z,-8.03
2018-02-27T02:21:07.905Z,-8.15
2018-02-27T02:22:07.633Z,-8.07
2018-02-27T02:23:12.418Z,-8.07
2018-02-27T02:24:07.597Z,-8.05
2018-02-27T02:25:07.578Z,-8.13
2018-02-27T02:26:07.303Z,-8.16
2018-02-27T02:27:07.562Z,-8.22
2018-02-27T02:28:07.523Z,-8.18
2018-02-27T02:29:07.759Z,-8.25
2018-02-27T02:30:07.231Z,-8.36
2018-02-27T02:31:07.215Z,-8.44
2018-02-27T02:32:07.447Z,-8.42
2018-02-27T02:33:07.427Z,-8.36
2018-02-27T02:34:07.410Z,-8.26
2018-02-27T02:35:07.645Z,-8.22
2018-02-27T02:36:07.377Z,-8.23
2018-02-27T02:37:07.615Z,-8.22
2018-02-27T02:38:07.433Z,-8.25
2018-02-27T02:39:07.316Z,-8.26
2018-02-27T02:40:07.599Z,-8.25
2018-02-27T02:41:07.027Z,-8.23
2018-02-27T02:42:07.518Z,-8.26
2018-02-27T02:43:06.990Z,-8.16
2018-02-27T02:44:07.485Z,-8.19
2018-02-27T02:45:07.209Z,-8.21
2018-02-27T02:46:06.933Z,-8.23
2018-02-27T02:47:07.428Z,-8.36
2018-02-27T02:48:07.408Z,-8.23
2018-02-27T02:49:07.391Z,-8.26
2018-02-27T02:50:07.144Z,-8.25
2018-02-27T02:51:07.130Z,-8.32
2018-02-27T02:52:07.328Z,-8.21
2018-02-27T02:53:07.318Z,-8.22
2018-02-27T02:54:07.306Z,-8.28
2018-02-27T02:55:07.027Z,-8.22
2018-02-27T02:56:07.016Z,-8.22
2018-02-27T02:57:06.984Z,-8.19
2018-02-27T02:58:06.965Z,-8.22
2018-02-27T02:59:07.205Z,-8.18
2018-02-27T03:00:07.193Z,-8.18
2018-02-27T03:01:07.174Z,-8.11
2018-02-27T03:02:07.158Z,-8.22
2018-02-27T03:03:07.134Z,-8.19
2018-02-27T03:04:06.864Z,-8.15
2018-02-27T03:05:06.841Z,-8.19
2018-02-27T03:06:07.073Z,-8.22
2018-02-27T03:07:07.061Z,-8.21
2018-02-27T03:08:07.034Z,-8.28
2018-02-27T03:09:07.022Z,-8.19
2018-02-27T03:10:06.756Z,-8.21
2018-02-27T03:11:06.741Z,-8.16
2018-02-27T03:12:06.965Z,-8.23
2018-02-27T03:13:06.701Z,-8.18
2018-02-27T03:14:06.933Z,-8.23
2018-02-27T03:15:06.911Z,-8.23
2018-02-27T03:16:06.658Z,-8.19
2018-02-27T03:17:06.889Z,-8.25
2018-02-27T03:18:06.881Z,-8.22
2018-02-27T03:19:06.576Z,-8.31
2018-02-27T03:20:06.838Z,-8.28
2018-02-27T03:21:06.809Z,-8.26
2018-02-27T03:22:06.530Z,-8.29
2018-02-27T03:23:06.503Z,-8.25
2018-02-27T03:24:06.739Z,-8.25
2018-02-27T03:25:06.742Z,-8.28
2018-02-27T03:26:06.459Z,-8.23
2018-02-27T03:27:06.685Z,-8.37
2018-02-27T03:28:06.425Z,-8.32
2018-02-27T03:29:06.666Z,-8.29
2018-02-27T03:30:06.128Z,-8.34
2018-02-27T03:31:06.629Z,-8.28
2018-02-27T03:32:06.598Z,-8.28
2018-02-27T03:33:06.572Z,-8.15
2018-02-27T03:34:06.053Z,-8.32
2018-02-27T03:35:06.539Z,-8.37
2018-02-27T03:36:06.515Z,-8.39
2018-02-27T03:37:06.251Z,-8.44
2018-02-27T03:38:06.235Z,-8.36
2018-02-27T03:39:06.567Z,-8.39
2018-02-27T03:40:06.008Z,-8.4
2018-02-27T03:41:06.426Z,-8.37
2018-02-27T03:42:06.421Z,-8.47
2018-02-27T03:43:06.384Z,-8.42
2018-02-27T03:44:06.372Z,-8.44
2018-02-27T03:45:06.348Z,-8.39
2018-02-27T03:46:06.331Z,-8.4
2018-02-27T03:47:06.316Z,-8.44
2018-02-27T03:48:06.292Z,-8.4
2018-02-27T03:49:06.021Z,-8.4
2018-02-27T03:50:06.295Z,-8.46
2018-02-27T03:51:06.250Z,-8.47
2018-02-27T03:52:06.228Z,-8.5
2018-02-27T03:53:06.207Z,-8.42
2018-02-27T03:54:07.730Z,-8.44
2018-02-27T03:55:05.906Z,-8.42
2018-02-27T03:56:06.154Z,-8.34
2018-02-27T03:57:06.131Z,-8.31
2018-02-27T03:58:06.124Z,-8.28
2018-02-27T03:59:06.098Z,-8.36
2018-02-27T04:00:06.070Z,-8.39
2018-02-27T04:01:06.062Z,-8.37
2018-02-27T04:02:06.110Z,-8.47
2018-02-27T04:03:05.759Z,-8.47
2018-02-27T04:04:06.002Z,-8.43
2018-02-27T04:05:05.468Z,-8.58
2018-02-27T04:06:05.955Z,-8.43
2018-02-27T04:07:05.700Z,-8.5
2018-02-27T04:08:05.920Z,-8.5
2018-02-27T04:09:07.009Z,-8.5
2018-02-27T04:10:05.881Z,-8.39
2018-02-27T04:11:05.868Z,-8.43
2018-02-27T04:12:05.590Z,-8.46
2018-02-27T04:13:05.830Z,-8.36
2018-02-27T04:14:05.820Z,-8.37
2018-02-27T04:15:05.798Z,-8.42
2018-02-27T04:16:05.520Z,-8.43
2018-02-27T04:17:05.507Z,-8.52
2018-02-27T04:18:05.731Z,-8.49
2018-02-27T04:19:05.462Z,-8.37
2018-02-27T04:20:05.710Z,-8.34
2018-02-27T04:21:05.424Z,-8.44
2018-02-27T04:22:05.657Z,-8.5
2018-02-27T04:23:05.384Z,-8.47
2018-02-27T04:24:05.362Z,-8.52
2018-02-27T04:25:05.341Z,-8.52
2018-02-27T04:26:05.590Z,-8.57
2018-02-27T04:27:05.569Z,-8.47
2018-02-27T04:28:05.286Z,-8.49
2018-02-27T04:29:05.531Z,-8.46
2018-02-27T04:30:05.261Z,-8.52
2018-02-27T04:31:05.248Z,-8.4
2018-02-27T04:32:05.467Z,-8.42
2018-02-27T04:33:05.451Z,-8.37
2018-02-27T04:34:05.452Z,-8.34
2018-02-27T04:35:05.444Z,-8.4
2018-02-27T04:36:05.405Z,-8.4
2018-02-27T04:37:05.136Z,-8.44
2018-02-27T04:38:05.362Z,-8.52
2018-02-27T04:39:05.096Z,-8.5
2018-02-27T04:40:05.328Z,-8.52
2018-02-27T04:41:05.307Z,-8.49
2018-02-27T04:42:05.034Z,-8.58
2018-02-27T04:43:05.274Z,-8.55
2018-02-27T04:44:05.263Z,-8.64
2018-02-27T04:45:05.232Z,-8.54
2018-02-27T04:46:04.961Z,-8.49
2018-02-27T04:47:04.691Z,-8.47
2018-02-27T04:48:05.171Z,-8.64
2018-02-27T04:49:05.213Z,-8.62
2018-02-27T04:50:05.275Z,-8.55
2018-02-27T04:51:04.856Z,-8.68
2018-02-27T04:52:05.099Z,-8.64
2018-02-27T04:53:05.077Z,-8.72
2018-02-27T04:54:04.813Z,-8.72
2018-02-27T04:55:05.725Z,-8.68
2018-02-27T04:56:05.037Z,-8.73
2018-02-27T04:57:04.758Z,-8.67
2018-02-27T04:58:04.993Z,-8.75
2018-02-27T04:59:04.967Z,-8.65
2018-02-27T05:00:05.157Z,-8.65
2018-02-27T05:01:04.667Z,-8.73
2018-02-27T05:02:04.646Z,-8.72
2018-02-27T05:03:04.897Z,-8.62
2018-02-27T05:04:04.861Z,-8.58
2018-02-27T05:05:04.600Z,-8.54
2018-02-27T05:06:04.315Z,-8.58
2018-02-27T05:07:04.298Z,-8.6
2018-02-27T05:08:04.790Z,-8.75
2018-02-27T05:09:04.771Z,-8.72
2018-02-27T05:10:04.812Z,-8.75
2018-02-27T05:11:04.740Z,-8.75
2018-02-27T05:12:04.710Z,-8.88
2018-02-27T05:13:04.695Z,-8.88
2018-02-27T05:14:04.427Z,-8.81
2018-02-27T05:15:04.656Z,-8.68
2018-02-27T05:16:04.388Z,-8.68
2018-02-27T05:17:04.612Z,-8.75
2018-02-27T05:18:04.607Z,-8.7
2018-02-27T05:19:04.592Z,-8.72
2018-02-27T05:20:04.565Z,-8.72
2018-02-27T05:21:04.287Z,-8.68
2018-02-27T05:22:04.530Z,-8.68
2018-02-27T05:23:04.288Z,-8.73
2018-02-27T05:24:04.489Z,-8.75
2018-02-27T05:25:04.476Z,-8.73
2018-02-27T05:26:04.713Z,-8.86
2018-02-27T05:27:03.923Z,-8.94
2018-02-27T05:28:04.155Z,-8.94
2018-02-27T05:29:04.387Z,-8.94
2018-02-27T05:30:04.375Z,-8.93
2018-02-27T05:31:04.099Z,-8.86
2018-02-27T05:32:04.085Z,-8.93
2018-02-27T05:33:04.065Z,-8.9
2018-02-27T05:34:04.292Z,-8.86
2018-02-27T05:35:04.040Z,-8.94
2018-02-27T05:36:04.011Z,-8.99
2018-02-27T05:37:03.988Z,-9
2018-02-27T05:38:04.215Z,-8.96
2018-02-27T05:39:04.199Z,-8.94
2018-02-27T05:40:03.925Z,-8.96
2018-02-27T05:41:04.211Z,-8.94
2018-02-27T05:42:04.144Z,-9
2018-02-27T05:43:04.124Z,-8.82
2018-02-27T05:44:04.112Z,-8.86
2018-02-27T05:45:03.838Z,-8.79
2018-02-27T05:46:04.070Z,-8.85
2018-02-27T05:47:03.792Z,-8.88
2018-02-27T05:48:04.025Z,-8.83
2018-02-27T05:49:04.012Z,-8.73
2018-02-27T05:50:03.990Z,-8.78
2018-02-27T05:51:03.968Z,-8.75
2018-02-27T05:52:03.439Z,-8.85
2018-02-27T05:53:03.694Z,-8.9
2018-02-27T05:54:03.662Z,-8.92
2018-02-27T05:55:03.646Z,-8.9
2018-02-27T05:56:03.623Z,-8.85
2018-02-27T05:57:03.864Z,-8.7
2018-02-27T05:58:03.582Z,-8.79
2018-02-27T05:59:03.563Z,-8.81
2018-02-27T06:00:03.813Z,-8.72
2018-02-27T06:01:03.774Z,-8.83
2018-02-27T06:02:03.768Z,-8.78
2018-02-27T06:03:03.738Z,-8.83
2018-02-27T06:04:03.719Z,-8.86
2018-02-27T06:05:03.446Z,-8.88
2018-02-27T06:06:03.732Z,-8.9
2018-02-27T06:07:03.403Z,-8.81
2018-02-27T06:08:03.641Z,-8.88
2018-02-27T06:09:03.627Z,-8.78
2018-02-27T06:10:03.610Z,-8.73
2018-02-27T06:11:03.088Z,-8.86
2018-02-27T06:12:03.620Z,-8.88
2018-02-27T06:13:03.576Z,-8.88
2018-02-27T06:14:03.016Z,-8.92
2018-02-27T06:15:03.508Z,-8.86
2018-02-27T06:16:03.505Z,-8.96
2018-02-27T06:17:03.473Z,-8.94
2018-02-27T06:18:03.469Z,-8.9
2018-02-27T06:19:03.436Z,-8.92
2018-02-27T06:20:03.165Z,-8.82
2018-02-27T06:21:03.135Z,-8.9
2018-02-27T06:22:03.120Z,-8.88
2018-02-27T06:23:03.351Z,-8.9
2018-02-27T06:24:02.844Z,-8.88
2018-02-27T06:25:03.317Z,-8.85
2018-02-27T06:26:03.291Z,-8.88
2018-02-27T06:27:04.155Z,-8.75
2018-02-27T06:28:03.007Z,-8.76
2018-02-27T06:29:03.238Z,-8.68
2018-02-27T06:30:03.161Z,-8.67
2018-02-27T06:31:03.197Z,-8.47
2018-02-27T06:32:02.680Z,-8.61
2018-02-27T06:33:03.167Z,-8.57
2018-02-27T06:34:02.913Z,-8.68
2018-02-27T06:35:03.121Z,-8.73
2018-02-27T06:36:03.113Z,-8.72
2018-02-27T06:37:02.841Z,-8.75
2018-02-27T06:38:03.069Z,-8.67
2018-02-27T06:39:03.051Z,-8.6
2018-02-27T06:40:03.034Z,-8.52
2018-02-27T06:41:02.764Z,-8.6
2018-02-27T06:42:04.104Z,-8.58
2018-02-27T06:43:02.982Z,-8.58
2018-02-27T06:44:02.973Z,-8.67
2018-02-27T06:45:02.689Z,-8.6
2018-02-27T06:46:02.922Z,-8.61
2018-02-27T06:47:02.913Z,-8.54
2018-02-27T06:48:02.631Z,-8.55
2018-02-27T06:49:02.609Z,-8.54
2018-02-27T06:50:02.847Z,-8.5
2018-02-27T06:51:02.820Z,-8.42
2018-02-27T06:52:02.802Z,-8.25
2018-02-27T06:53:02.543Z,-8.15
2018-02-27T06:54:02.526Z,-8.08
2018-02-27T06:55:02.756Z,-8.1
2018-02-27T06:56:02.747Z,-8.21
2018-02-27T06:57:02.464Z,-8.21
2018-02-27T06:58:02.697Z,-8.23
2018-02-27T06:59:02.677Z,-8.13
2018-02-27T07:00:02.413Z,-8.04
2018-02-27T07:01:02.632Z,-8.03
2018-02-27T07:02:02.366Z,-8.1
2018-02-27T07:03:02.612Z,-8.13
2018-02-27T07:04:02.336Z,-8.15
2018-02-27T07:05:02.077Z,-8.04
2018-02-27T07:06:02.550Z,-7.96
2018-02-27T07:07:02.272Z,-7.82
2018-02-27T07:08:02.254Z,-7.86
2018-02-27T07:09:02.232Z,-7.89
2018-02-27T07:10:02.480Z,-7.92
2018-02-27T07:11:02.457Z,-8.11
2018-02-27T07:12:02.181Z,-8.05
2018-02-27T07:13:02.465Z,-8.08
2018-02-27T07:14:02.404Z,-7.99
2018-02-27T07:15:02.381Z,-8.07
2018-02-27T07:16:02.365Z,-8.18
2018-02-27T07:17:02.119Z,-8.18
2018-02-27T07:18:02.326Z,-8.15
2018-02-27T07:19:02.306Z,-8.05
2018-02-27T07:20:02.059Z,-8.08
2018-02-27T07:21:02.280Z,-7.99
2018-02-27T07:22:02.255Z,-7.93
2018-02-27T07:23:02.233Z,-8.05
2018-02-27T07:24:02.218Z,-8.01
2018-02-27T07:25:01.948Z,-8.03
2018-02-27T07:26:02.184Z,-8.01
2018-02-27T07:27:01.919Z,-8.13
2018-02-27T07:28:03.793Z,-8.04
2018-02-27T07:29:02.140Z,-8.01
2018-02-27T07:30:02.117Z,-8.04
2018-02-27T07:31:02.101Z,-7.92
2018-02-27T07:32:01.571Z,-8.01
2018-02-27T07:33:01.560Z,-7.97
2018-02-27T07:34:01.800Z,-7.91
2018-02-27T07:35:01.788Z,-7.88
2018-02-27T07:36:02.001Z,-7.75
2018-02-27T07:37:01.756Z,-7.47
2018-02-27T07:38:01.710Z,-7.21
2018-02-27T07:39:01.694Z,-6.94
2018-02-27T07:40:01.683Z,-6.89
2018-02-27T07:41:01.920Z,-6.81
2018-02-27T07:42:01.643Z,-6.72
2018-02-27T07:43:05.854Z,-6.66
2018-02-27T07:44:01.876Z,-6.54
2018-02-27T07:45:01.867Z,-6.58
2018-02-27T07:46:01.577Z,-6.6
2018-02-27T07:47:01.577Z,-6.6
2018-02-27T07:48:01.545Z,-6.84
2018-02-27T07:49:01.533Z,-7.08
2018-02-27T07:50:01.770Z,-7.07
2018-02-27T07:51:01.814Z,-7.04
2018-02-27T07:52:01.736Z,-7.15
2018-02-27T07:53:01.458Z,-7.33
2018-02-27T07:54:01.441Z,-7.43
2018-02-27T07:55:01.677Z,-7.6
2018-02-27T07:56:01.668Z,-7.56
2018-02-27T07:57:01.393Z,-7.61
2018-02-27T07:58:01.638Z,-7.6
2018-02-27T07:59:01.359Z,-7.71
2018-02-27T08:00:01.344Z,-7.96
2018-02-27T08:01:01.332Z,-7.88
2018-02-27T08:02:01.313Z,-7.85
2018-02-27T08:03:01.291Z,-7.79
2018-02-27T08:04:01.322Z,-7.82
2018-02-27T08:05:01.272Z,-7.85
2018-02-27T08:06:01.258Z,-7.83
2018-02-27T08:07:01.223Z,-7.78
2018-02-27T08:08:01.459Z,-7.75
2018-02-27T08:09:01.188Z,-7.65
2018-02-27T08:10:01.430Z,-7.6
2018-02-27T08:11:01.165Z,-7.79
2018-02-27T08:12:01.386Z,-7.89
2018-02-27T08:13:01.129Z,-7.93
2018-02-27T08:14:03.012Z,-7.85
2018-02-27T08:15:01.336Z,-7.96
2018-02-27T08:16:01.318Z,-7.96
2018-02-27T08:17:01.304Z,-7.99
2018-02-27T08:18:01.033Z,-8.03
2018-02-27T08:19:01.021Z,-8.01
2018-02-27T08:20:01.261Z,-7.89
2018-02-27T08:21:01.235Z,-7.85
2018-02-27T08:22:01.011Z,-7.85
2018-02-27T08:23:01.201Z,-7.83
2018-02-27T08:24:01.195Z,-7.81
2018-02-27T08:25:01.200Z,-7.63
2018-02-27T08:26:00.931Z,-7.58
2018-02-27T08:27:01.141Z,-7.63
2018-02-27T08:28:00.610Z,-7.65
2018-02-27T08:29:01.307Z,-7.71
2018-02-27T08:30:01.094Z,-7.82
2018-02-27T08:31:00.823Z,-7.85
2018-02-27T08:32:01.086Z,-7.71
2018-02-27T08:33:00.772Z,-7.61
2018-02-27T08:34:00.759Z,-7.52
2018-02-27T08:35:00.745Z,-7.47
2018-02-27T08:36:00.976Z,-7.43
2018-02-27T08:37:00.953Z,-7.35
2018-02-27T08:38:00.941Z,-7.28
2018-02-27T08:39:00.674Z,-7.25
2018-02-27T08:41:00.900Z,-7.08
2018-02-27T08:42:00.613Z,-7
2018-02-27T08:43:00.853Z,-7.03
2018-02-27T08:44:00.889Z,-7.03
2018-02-27T08:45:00.568Z,-6.93
2018-02-27T08:46:00.808Z,-7.04
2018-02-27T08:47:00.786Z,-7.05
2018-02-27T08:48:00.511Z,-7
2018-02-27T08:49:00.749Z,-6.89
2018-02-27T08:50:00.746Z,-6.84
2018-02-27T08:51:00.520Z,-6.71
2018-02-27T08:52:00.449Z,-6.5
2018-02-27T08:53:00.685Z,-6.31
2018-02-27T08:54:00.676Z,-6.28
2018-02-27T08:55:00.650Z,-6.18
2018-02-27T08:56:00.386Z,-6
2018-02-27T08:57:00.624Z,-6
2018-02-27T08:58:00.350Z,-6.05
2018-02-27T08:59:00.587Z,-5.92
2018-02-27T09:00:00.601Z,-5.99
2018-02-27T09:01:00.602Z,-6.23
2018-02-27T09:02:00.284Z,-6.41
2018-02-27T09:03:00.267Z,-6.39
2018-02-27T09:04:00.507Z,-6.53
2018-02-27T09:05:00.501Z,-6.65
2018-02-27T09:06:00.260Z,-6.66
2018-02-27T09:07:00.209Z,-6.5
2018-02-27T09:08:00.441Z,-6.41
2018-02-27T09:09:00.455Z,-6.49
2018-02-27T09:10:00.171Z,-6.61
2018-02-27T09:11:00.410Z,-6.53
2018-02-27T09:12:00.378Z,-6.74
2018-02-27T09:13:00.107Z,-6.87
2018-02-27T09:14:00.100Z,-6.94
2018-02-27T09:15:00.391Z,-6.87
2018-02-27T09:16:00.318Z,-6.84
2018-02-27T09:17:00.044Z,-6.84
2018-02-27T09:18:00.280Z,-6.84
2018-02-27T09:19:00.274Z,-6.86
2018-02-27T09:19:59.999Z,-6.71
2018-02-27T09:21:00.238Z,-6.74
2018-02-27T09:21:59.967Z,-6.74
2018-02-27T09:23:00.209Z,-6.65
2018-02-27T09:23:59.958Z,-6.6
2018-02-27T09:25:00.170Z,-6.69
2018-02-27T09:25:59.900Z,-6.86
2018-02-27T09:26:59.882Z,-6.89
2018-02-27T09:28:00.124Z,-6.87
2018-02-27T09:28:59.597Z,-6.86
2018-02-27T09:30:00.586Z,-6.79
2018-02-27T09:30:59.567Z,-6.63
2018-02-27T09:32:00.055Z,-6.58
2018-02-27T09:32:59.533Z,-6.44
2018-02-27T09:34:00.029Z,-6.42
2018-02-27T09:34:59.827Z,-6.47
2018-02-27T09:35:59.735Z,-6.49
2018-02-27T09:36:59.980Z,-6.56
2018-02-27T09:37:59.957Z,-6.68
2018-02-27T09:38:59.952Z,-6.78
2018-02-27T09:39:59.680Z,-6.86
2018-02-27T09:40:59.667Z,-6.9
2018-02-27T09:41:59.644Z,-6.9
2018-02-27T09:42:59.886Z,-6.96
2018-02-27T09:43:59.625Z,-6.92
2018-02-27T09:45:00.707Z,-6.89
2018-02-27T09:45:59.904Z,-6.93
2018-02-27T09:46:59.830Z,-6.84
2018-02-27T09:47:59.555Z,-6.54
2018-02-27T09:48:59.800Z,-6.47
2018-02-27T09:49:59.265Z,-6.53
2018-02-27T09:50:59.503Z,-6.56
2018-02-27T09:51:59.745Z,-6.38
2018-02-27T09:52:59.750Z,-6.36
2018-02-27T09:53:59.717Z,-6.29
2018-02-27T09:54:59.178Z,-6.28
2018-02-27T09:55:59.168Z,-6.24
2018-02-27T09:56:59.673Z,-6.31
2018-02-27T09:57:59.655Z,-6.23
2018-02-27T09:58:59.116Z,-6.31
2018-02-27T10:00:00.459Z,-6.31
2018-02-27T10:00:59.336Z,-6.29
2018-02-27T10:01:59.571Z,-6.26
2018-02-27T10:02:59.567Z,-6.26
2018-02-27T10:03:59.287Z,-6.15
2018-02-27T10:04:59.533Z,-6.31
2018-02-27T10:05:59.539Z,-6.24
2018-02-27T10:06:59.510Z,-6.24
2018-02-27T10:07:59.512Z,-6.11
2018-02-27T10:08:59.211Z,-6.05
2018-02-27T10:09:59.462Z,-6.08
2018-02-27T10:10:59.439Z,-6.15
2018-02-27T10:11:59.190Z,-6.11
2018-02-27T10:12:59.408Z,-5.97
2018-02-27T10:13:59.141Z,-6
2018-02-27T10:14:59.114Z,-5.97
2018-02-27T10:16:00.622Z,-6
2018-02-27T10:16:59.339Z,-5.96
2018-02-27T10:17:59.324Z,-5.89
2018-02-27T10:18:59.061Z,-5.99
2018-02-27T10:19:59.291Z,-5.84
2018-02-27T10:20:59.276Z,-5.92
2018-02-27T10:21:59.008Z,-5.99
2018-02-27T10:22:59.262Z,-5.96
2018-02-27T10:23:58.990Z,-6.07
2018-02-27T10:24:59.229Z,-6.02
2018-02-27T10:25:58.941Z,-6.15
2018-02-27T10:26:58.934Z,-6.14
2018-02-27T10:56:59.089Z,-5.54
2018-02-27T10:57:59.262Z,-5.56
2018-02-27T10:58:59.242Z,-5.66
2018-02-27T10:59:59.221Z,-5.86
2018-02-27T11:00:58.946Z,-5.78
2018-02-27T11:01:59.236Z,-5.78
2018-02-27T11:02:58.911Z,-5.78
2018-02-27T11:03:59.164Z,-5.68
2018-02-27T11:04:58.882Z,-5.58
2018-02-27T11:05:58.858Z,-5.54
2018-02-27T11:06:59.092Z,-5.4
2018-02-27T11:07:58.823Z,-5.35
2018-02-27T11:08:58.822Z,-5.25
2018-02-27T11:09:58.541Z,-5.25
2018-02-27T11:10:59.040Z,-5.29
2018-02-27T11:11:59.333Z,-5.22
2018-02-27T11:12:58.996Z,-5.13
2018-02-27T11:13:59.027Z,-5.27
2018-02-27T11:14:58.972Z,-5.47
2018-02-27T11:15:58.700Z,-5.58
2018-02-27T11:16:58.994Z,-5.84
2018-02-27T11:17:58.920Z,-5.82
2018-02-27T11:18:58.906Z,-5.81
2018-02-27T11:19:58.984Z,-5.76
2018-02-27T11:20:58.875Z,-5.64
2018-02-27T11:21:58.615Z,-5.57
2018-02-27T11:22:58.591Z,-5.56
2018-02-27T11:23:58.838Z,-5.6
2018-02-27T11:24:58.559Z,-5.61
2018-02-27T11:25:58.549Z,-5.75
2018-02-27T11:26:58.843Z,-5.74
2018-02-27T11:27:58.768Z,-5.79
2018-02-27T11:28:58.498Z,-5.6
2018-02-27T11:29:58.480Z,-5.64
2018-02-27T11:30:58.732Z,-5.49
2018-02-27T11:31:58.455Z,-5.39
2018-02-27T11:32:58.429Z,-5.39
2018-02-27T11:33:58.676Z,-5.38
2018-02-27T11:34:58.676Z,-5.51
2018-02-27T11:35:58.386Z,-5.54
2018-02-27T11:36:58.626Z,-5.58
2018-02-27T11:37:58.612Z,-5.42
2018-02-27T11:38:58.602Z,-5.36
2018-02-27T11:39:58.582Z,-5.28
2018-02-27T11:40:58.319Z,-5.42
2018-02-27T11:42:00.613Z,-5.51
2018-02-27T11:42:58.287Z,-5.47
2018-02-27T11:43:58.264Z,-5.56
2018-02-27T11:44:58.253Z,-5.51
2018-02-27T11:45:58.498Z,-5.51
2018-02-27T11:46:58.474Z,-5.49
2018-02-27T11:47:58.221Z,-5.4
2018-02-27T11:48:58.539Z,-5.33
2018-02-27T11:49:58.430Z,-5.29
2018-02-27T11:50:58.422Z,-5.17
2018-02-27T11:51:58.402Z,-4.96
2018-02-27T11:52:58.392Z,-4.78
2018-02-27T11:53:58.385Z,-4.87
2018-02-27T11:54:58.104Z,-4.84
2018-02-27T11:55:58.342Z,-4.73
2018-02-27T11:56:58.374Z,-4.77
2018-02-27T11:57:58.317Z,-4.85
2018-02-27T11:58:58.044Z,-4.92
2018-02-27T11:59:58.282Z,-4.99
2018-02-27T12:00:58.021Z,-4.95
2018-02-27T12:01:58.002Z,-5.21
2018-02-27T12:02:58.252Z,-5.17
2018-02-27T12:03:58.235Z,-5.21
2018-02-27T12:04:58.215Z,-5.33
2018-02-27T12:05:57.983Z,-5.31
2018-02-27T12:06:57.925Z,-5.38
2018-02-27T12:07:57.919Z,-5.39
2018-02-27T12:08:57.895Z,-5.51
2018-02-27T12:09:57.890Z,-5.39
2018-02-27T12:10:58.125Z,-5.28
2018-02-27T12:11:58.114Z,-5.42
2018-02-27T12:12:57.838Z,-5.4
2018-02-27T12:13:58.080Z,-5.31
2018-02-27T12:14:58.079Z,-5.25
2018-02-27T12:15:58.071Z,-5.18
2018-02-27T12:16:57.775Z,-5.05
2018-02-27T12:17:58.020Z,-5.09
2018-02-27T12:18:57.999Z,-5.17
2018-02-27T12:19:57.985Z,-5.27
2018-02-27T12:20:57.988Z,-5.4
2018-02-27T12:21:57.708Z,-5.57
2018-02-27T12:22:57.704Z,-5.68
2018-02-27T12:23:57.978Z,-5.71
2018-02-27T12:24:57.917Z,-5.68
2018-02-27T12:25:57.653Z,-5.63
2018-02-27T12:26:57.631Z,-5.64
2018-02-27T12:27:57.613Z,-5.75
2018-02-27T12:28:57.844Z,-5.64
2018-02-27T12:29:57.835Z,-5.51
2018-02-27T12:30:57.565Z,-5.39
2018-02-27T12:31:57.562Z,-5.14
2018-02-27T12:32:57.539Z,-4.99
2018-02-27T12:33:57.782Z,-4.78
2018-02-27T12:34:57.525Z,-4.53
2018-02-27T12:35:57.769Z,-4.32
2018-02-27T12:36:57.732Z,-4.22
2018-02-27T12:37:57.213Z,-4.14
2018-02-27T12:38:57.471Z,-4.14
2018-02-27T12:39:57.176Z,-4.09
2018-02-27T12:40:57.677Z,-4.12
2018-02-27T12:41:57.745Z,-3.92
2018-02-27T12:42:57.647Z,-3.78
2018-02-27T12:43:57.382Z,-3.78
2018-02-27T12:44:57.106Z,-3.78
2018-02-27T12:45:57.106Z,-3.77
2018-02-27T12:46:57.587Z,-3.78
2018-02-27T12:47:57.064Z,-3.67
2018-02-27T12:48:57.556Z,-3.66
2018-02-27T12:49:57.555Z,-3.7
2018-02-27T12:50:57.026Z,-3.59
2018-02-27T12:51:57.520Z,-3.64
2018-02-27T12:52:57.560Z,-4.02
2018-02-27T12:53:57.240Z,-4.22
2018-02-27T12:54:56.972Z,-4.34
2018-02-27T12:55:57.207Z,-4.42
2018-02-27T12:56:57.461Z,-4.45
2018-02-27T12:58:01.491Z,-4.61
2018-02-27T12:58:57.437Z,-4.73
2018-02-27T12:59:57.153Z,-4.79
2018-02-27T13:00:57.396Z,-4.81
2018-02-27T13:01:57.120Z,-4.79
2018-02-27T13:02:57.377Z,-4.66
2018-02-27T13:03:57.098Z,-4.55
2018-02-27T13:04:57.377Z,-4.28
2018-02-27T13:05:57.063Z,-4.16
2018-02-27T13:06:57.048Z,-4.03
2018-02-27T13:07:57.044Z,-3.86
2018-02-27T13:08:57.278Z,-3.72
2018-02-27T13:09:57.279Z,-3.69
2018-02-27T13:10:57.253Z,-3.52
2018-02-27T13:11:57.259Z,-3.38
2018-02-27T13:12:56.982Z,-3.44
2018-02-27T13:13:57.236Z,-3.58
2018-02-27T13:14:56.685Z,-3.67
2018-02-27T13:15:57.186Z,-3.82
2018-02-27T13:16:57.173Z,-3.74
2018-02-27T13:17:56.943Z,-3.75
2018-02-27T13:18:57.153Z,-3.63
2018-02-27T13:19:56.871Z,-3.67
2018-02-27T13:20:57.118Z,-3.88
2018-02-27T13:21:57.123Z,-4.1
2018-02-27T13:22:57.099Z,-4.3
2018-02-27T13:23:57.071Z,-4.14
2018-02-27T13:24:57.055Z,-4.17